Highland Falls, New York
Current Conditions -  °F | °C
As of 7:45 AM on Friday 19 Dec 2014 (Local Time) from KSWF Reporting Station
Overcast Overcast  
Wind Chill: 22°   Ceiling: 3500
Heat Index: 32°   Visibility: 20mi
Dew Point: 23°   Wind: 14mph
Humidity: 69%   Direction: 310°NW
Pressure: 30.01"   Gusts: NA
Location:  41.37°N, 73.97°W
Report Text: KSWF 191245Z 31012KT 20SM OVC035 00/M05 A3001
Loading
Personal Weather Stations






























Interactive Weather Map New forecast layout! Learn more

10-Day Weather Forecast

Advertisements
Track Severe Weather on mobile